createdAt,value
2023-02-15T00:01:56.657Z,14.23
2023-02-15T00:04:25.617Z,15.77
2023-02-15T00:06:52.385Z,13.13
2023-02-15T00:09:19.211Z,12.27
2023-02-15T00:11:51.991Z,13.37
2023-02-15T00:14:23.421Z,12.60
2023-02-15T00:16:52.292Z,11.93
2023-02-15T00:19:20.645Z,12.40
2023-02-15T00:21:48.760Z,12.47
2023-02-15T00:24:17.889Z,12.00
2023-02-15T00:26:45.776Z,11.43
2023-02-15T00:29:13.286Z,10.93
2023-02-15T00:31:40.257Z,11.17
2023-02-15T00:34:19.591Z,11.87
2023-02-15T00:36:46.847Z,12.50
2023-02-15T00:39:14.212Z,12.00
2023-02-15T00:41:41.419Z,11.47
2023-02-15T00:44:08.513Z,13.13
2023-02-15T00:46:35.969Z,11.87
2023-02-15T00:49:03.763Z,11.97
2023-02-15T00:51:30.643Z,12.60
2023-02-15T00:53:57.427Z,13.17
2023-02-15T00:56:24.375Z,11.80
2023-02-15T00:58:51.068Z,11.73
2023-02-15T01:01:20.437Z,12.43
2023-02-15T01:03:48.116Z,12.33
2023-02-15T01:06:16.790Z,12.50
2023-02-15T01:08:44.884Z,12.70
2023-02-15T01:11:27.693Z,12.90
2023-02-15T01:13:57.035Z,11.80
2023-02-15T01:16:31.693Z,12.20
2023-02-15T01:18:58.540Z,12.30
2023-02-15T01:21:26.709Z,12.50
2023-02-15T01:23:54.094Z,11.67
2023-02-15T01:26:21.022Z,12.03
2023-02-15T01:28:48.006Z,11.53
2023-02-15T01:31:17.267Z,11.10
2023-02-15T01:33:44.195Z,12.37
2023-02-15T01:36:11.454Z,11.70
2023-02-15T01:38:38.284Z,11.43
2023-02-15T01:41:24.033Z,12.77
2023-02-15T01:43:54.709Z,12.60
2023-02-15T01:46:27.746Z,12.43
2023-02-15T01:49:03.114Z,12.00
2023-02-15T01:51:34.043Z,11.97
2023-02-15T01:54:25.794Z,11.33
2023-02-15T01:57:00.788Z,11.80
2023-02-15T01:59:27.901Z,12.40
2023-02-15T02:02:00.368Z,12.13
2023-02-15T02:04:37.051Z,10.93
2023-02-15T02:07:05.414Z,10.83
2023-02-15T02:09:32.847Z,11.57
2023-02-15T02:11:59.900Z,11.77
2023-02-15T02:14:27.159Z,11.63
2023-02-15T02:17:07.888Z,12.47
2023-02-15T02:20:21.741Z,11.27
2023-02-15T02:23:45.814Z,11.67
2023-02-15T02:26:32.332Z,13.20
2023-02-15T02:29:31.057Z,11.63
2023-02-15T02:32:32.374Z,11.13
2023-02-15T02:35:06.347Z,12.33
2023-02-15T02:37:59.505Z,11.73
2023-02-15T02:40:40.489Z,10.67
2023-02-15T02:43:30.990Z,11.17
2023-02-15T02:46:03.843Z,10.10
2023-02-15T02:48:35.048Z,11.43
2023-02-15T02:51:02.002Z,11.03
2023-02-15T02:53:31.489Z,11.53
2023-02-15T02:56:04.518Z,11.63
2023-02-15T02:58:43.734Z,11.27
2023-02-15T03:01:34.428Z,11.97
2023-02-15T03:04:08.432Z,11.80
2023-02-15T03:06:48.525Z,10.93
2023-02-15T03:09:54.628Z,10.47
2023-02-15T03:12:26.752Z,11.40
2023-02-15T03:15:02.644Z,11.17
2023-02-15T03:17:33.459Z,11.73
2023-02-15T03:20:08.309Z,11.20
2023-02-15T03:22:38.841Z,12.40
2023-02-15T03:25:16.001Z,11.13
2023-02-15T03:27:50.037Z,11.23
2023-02-15T03:30:21.143Z,10.90
2023-02-15T03:32:50.850Z,10.97
2023-02-15T03:35:19.460Z,10.90
2023-02-15T03:37:51.482Z,11.80
2023-02-15T03:40:48.080Z,12.07
2023-02-15T03:43:38.702Z,10.90
2023-02-15T03:46:22.879Z,11.27
2023-02-15T03:48:55.315Z,10.73
2023-02-15T03:51:36.134Z,11.20
2023-02-15T03:54:41.800Z,11.33
2023-02-15T03:57:33.935Z,10.97
2023-02-15T04:00:21.352Z,11.07
2023-02-15T04:03:05.926Z,11.80
2023-02-15T04:05:33.798Z,10.80
2023-02-15T04:08:00.750Z,11.10
2023-02-15T04:10:46.175Z,10.77
2023-02-15T04:13:13.158Z,10.90
2023-02-15T04:15:58.423Z,11.23
2023-02-15T04:18:43.781Z,11.00
2023-02-15T04:21:29.202Z,11.07
2023-02-15T04:24:14.808Z,11.33
2023-02-15T04:26:41.507Z,11.13
2023-02-15T04:29:08.219Z,10.63
2023-02-15T04:31:35.041Z,11.37
2023-02-15T04:34:01.807Z,10.70
2023-02-15T04:36:28.666Z,10.80
2023-02-15T04:38:55.424Z,10.77
2023-02-15T04:41:22.234Z,11.57
2023-02-15T04:43:48.916Z,10.53
2023-02-15T04:46:15.877Z,11.40
2023-02-15T04:48:42.602Z,10.20
2023-02-15T04:51:10.405Z,10.13
2023-02-15T04:53:37.198Z,11.47
2023-02-15T04:56:04.350Z,10.77
2023-02-15T04:58:31.207Z,10.77
2023-02-15T05:00:58.147Z,10.87
2023-02-15T05:03:25.954Z,10.70
2023-02-15T05:05:52.688Z,10.90
2023-02-15T05:08:19.462Z,11.73
2023-02-15T05:10:48.403Z,10.87
2023-02-15T05:13:15.362Z,11.87
2023-02-15T05:15:44.094Z,12.00
2023-02-15T05:18:11.753Z,11.43
2023-02-15T05:20:38.453Z,11.07
2023-02-15T05:23:05.508Z,11.47
2023-02-15T05:25:51.284Z,10.33
2023-02-15T05:28:22.045Z,11.47
2023-02-15T05:30:51.758Z,11.07
2023-02-15T05:33:18.981Z,12.13
2023-02-15T05:35:45.790Z,10.67
2023-02-15T05:38:12.554Z,13.37
2023-02-15T05:40:39.308Z,13.23
2023-02-15T05:43:06.048Z,11.93
2023-02-15T05:45:32.867Z,11.33
2023-02-15T05:47:59.871Z,12.40
2023-02-15T05:50:27.192Z,13.63
2023-02-15T05:52:54.415Z,13.30
2023-02-15T05:55:21.317Z,13.67
2023-02-15T05:57:48.266Z,12.07
2023-02-15T06:00:15.608Z,11.80
2023-02-15T06:02:42.552Z,12.63
2023-02-15T06:05:09.718Z,12.60
2023-02-15T06:07:36.555Z,12.27
2023-02-15T06:10:04.632Z,12.50
2023-02-15T06:12:31.787Z,13.30
2023-02-15T06:14:58.683Z,12.30
2023-02-15T06:17:25.623Z,12.83
2023-02-15T06:19:52.383Z,13.13
2023-02-15T06:22:19.190Z,12.80
2023-02-15T06:24:46.026Z,11.67
2023-02-15T06:27:12.822Z,12.73
2023-02-15T06:29:39.736Z,11.80
2023-02-15T06:32:06.998Z,11.87
2023-02-15T06:34:33.907Z,12.73
2023-02-15T06:37:00.858Z,12.73
2023-02-15T06:39:27.619Z,13.63
2023-02-15T06:41:54.583Z,13.83
2023-02-15T06:44:21.467Z,13.10
2023-02-15T06:46:48.264Z,13.17
2023-02-15T06:49:15.159Z,13.03
2023-02-15T06:51:42.630Z,12.87
2023-02-15T06:54:09.966Z,12.43
2023-02-15T06:56:36.915Z,13.67
2023-02-15T06:59:03.960Z,12.87
2023-02-15T07:01:30.802Z,13.13
2023-02-15T07:03:57.732Z,14.13
2023-02-15T07:06:24.709Z,12.43
2023-02-15T07:08:51.651Z,13.67
2023-02-15T07:11:37.255Z,12.20
2023-02-15T07:14:04.077Z,12.43
2023-02-15T07:16:30.971Z,13.17
2023-02-15T07:18:57.839Z,13.63
2023-02-15T07:21:24.584Z,13.47
2023-02-15T07:23:51.321Z,13.20
2023-02-15T07:26:18.152Z,13.17
2023-02-15T07:28:45.312Z,12.77
2023-02-15T07:31:12.207Z,12.73
2023-02-15T07:33:39.040Z,14.57
2023-02-15T07:36:06.510Z,13.97
2023-02-15T07:38:41.395Z,13.80
2023-02-15T07:41:10.619Z,15.23
2023-02-15T07:43:40.409Z,14.97
2023-02-15T07:46:13.119Z,15.90
2023-02-15T07:48:40.893Z,14.07
2023-02-15T07:51:10.020Z,14.00
2023-02-15T07:53:38.112Z,13.53
2023-02-15T07:56:07.841Z,13.60
2023-02-15T07:58:53.685Z,12.40
2023-02-15T08:01:41.456Z,12.60
2023-02-15T08:04:10.491Z,14.03
2023-02-15T08:06:37.690Z,16.53
2023-02-15T08:09:07.054Z,22.20
2023-02-15T08:11:40.631Z,17.33
2023-02-15T08:14:14.758Z,14.40
2023-02-15T08:16:50.533Z,14.27
2023-02-15T08:19:24.935Z,14.03
2023-02-15T08:22:01.025Z,14.47
2023-02-15T08:24:30.395Z,14.00
2023-02-15T08:26:58.021Z,14.73
2023-02-15T08:29:27.961Z,14.93
2023-02-15T08:32:03.006Z,15.50
2023-02-15T08:34:32.606Z,14.03
2023-02-15T08:37:00.273Z,14.50
2023-02-15T08:39:28.166Z,14.80
2023-02-15T08:41:55.012Z,13.73
2023-02-15T08:44:22.280Z,13.87
2023-02-15T08:46:50.299Z,15.37
2023-02-15T08:49:20.079Z,15.23
2023-02-15T08:51:48.081Z,14.97
2023-02-15T08:54:17.348Z,14.37
2023-02-15T08:56:45.424Z,13.57
2023-02-15T08:59:23.681Z,14.27
2023-02-15T09:01:52.560Z,13.63
2023-02-15T09:04:21.573Z,13.37
2023-02-15T09:06:50.916Z,15.83
2023-02-15T09:09:18.891Z,15.33
2023-02-15T09:11:48.397Z,15.17
2023-02-15T09:14:25.631Z,16.77
2023-02-15T09:16:53.925Z,15.53
2023-02-15T09:19:25.367Z,14.60
2023-02-15T09:21:52.617Z,14.57
2023-02-15T09:24:19.475Z,13.77
2023-02-15T09:26:48.452Z,13.30
2023-02-15T09:29:16.511Z,13.47
2023-02-15T09:31:46.435Z,13.40
2023-02-15T09:34:15.247Z,13.60
2023-02-15T09:36:42.787Z,12.87
2023-02-15T09:39:14.504Z,14.00
2023-02-15T09:41:56.247Z,14.20
2023-02-15T09:44:50.475Z,12.70
2023-02-15T09:47:36.075Z,12.80
2023-02-15T09:50:41.072Z,13.67
2023-02-15T09:53:35.415Z,13.90
2023-02-15T09:56:19.492Z,14.10
2023-02-15T09:58:56.475Z,13.43
2023-02-15T10:02:08.263Z,14.50
2023-02-15T10:04:53.154Z,14.53
2023-02-15T10:07:50.570Z,13.70
2023-02-15T10:10:54.521Z,13.93
2023-02-15T10:13:47.532Z,13.80
2023-02-15T10:16:46.459Z,13.87
2023-02-15T10:19:34.305Z,16.97
2023-02-15T10:22:04.186Z,15.00
2023-02-15T10:24:42.105Z,14.17
2023-02-15T10:27:22.699Z,14.07
2023-02-15T10:30:12.429Z,14.83
2023-02-15T10:33:02.051Z,13.50
2023-02-15T10:35:55.476Z,14.30
2023-02-15T10:38:36.265Z,13.57
2023-02-15T10:41:17.337Z,13.23
2023-02-15T10:43:56.868Z,13.40
2023-02-15T10:46:42.386Z,13.27
2023-02-15T10:49:27.030Z,12.73
2023-02-15T10:52:24.317Z,12.10
2023-02-15T10:55:15.289Z,15.17
2023-02-15T10:57:55.388Z,15.93
2023-02-15T11:00:53.587Z,14.13
2023-02-15T11:03:33.602Z,14.17
2023-02-15T11:06:06.072Z,13.40
2023-02-15T11:08:38.193Z,14.13
2023-02-15T11:11:11.830Z,13.43
2023-02-15T11:13:43.119Z,13.10
2023-02-15T11:16:26.939Z,13.23
2023-02-15T11:19:19.811Z,12.97
2023-02-15T11:21:54.713Z,13.23
2023-02-15T11:24:22.688Z,13.47
2023-02-15T11:27:23.990Z,13.97
2023-02-15T11:30:10.375Z,12.77
2023-02-15T11:32:47.215Z,12.93
2023-02-15T11:35:22.654Z,12.67
2023-02-15T11:38:14.120Z,13.37
2023-02-15T11:40:54.088Z,13.17
2023-02-15T11:43:44.628Z,13.10
2023-02-15T11:46:13.518Z,12.67
2023-02-15T11:48:40.827Z,14.10
2023-02-15T11:51:15.082Z,14.97
2023-02-15T11:53:41.960Z,14.10
2023-02-15T11:56:16.144Z,12.87
2023-02-15T11:58:49.089Z,12.40
2023-02-15T12:01:41.915Z,15.37
2023-02-15T12:04:14.679Z,15.73
2023-02-15T12:07:16.231Z,12.50
2023-02-15T12:10:08.280Z,10.83
2023-02-15T12:12:37.072Z,10.80
2023-02-15T12:15:07.186Z,10.33
2023-02-15T12:17:39.486Z,9.63
2023-02-15T12:20:35.053Z,10.17
2023-02-15T12:23:12.974Z,10.63
2023-02-15T12:25:56.953Z,11.03
2023-02-15T12:28:26.409Z,10.07
2023-02-15T12:30:55.650Z,10.10
2023-02-15T12:33:32.379Z,10.40
2023-02-15T12:36:13.682Z,10.23
2023-02-15T12:38:40.987Z,10.20
2023-02-15T12:41:25.894Z,9.67
2023-02-15T12:44:19.906Z,9.60
2023-02-15T12:47:06.542Z,10.30
2023-02-15T12:49:37.926Z,9.00
2023-02-15T12:52:21.106Z,7.53
2023-02-15T12:54:48.511Z,8.03
2023-02-15T12:57:33.376Z,8.73
2023-02-15T13:00:04.722Z,7.07
2023-02-15T13:02:45.421Z,7.03
2023-02-15T13:05:21.403Z,7.03
2023-02-15T13:08:05.186Z,6.83
2023-02-15T13:10:55.134Z,7.17
2023-02-15T13:13:26.560Z,7.33
2023-02-15T13:15:56.625Z,6.97
2023-02-15T13:18:39.464Z,6.63
2023-02-15T13:21:29.165Z,6.70
2023-02-15T13:24:05.467Z,6.40
2023-02-15T13:26:33.481Z,6.90
2023-02-15T13:29:09.664Z,7.27
2023-02-15T13:31:37.342Z,6.67
2023-02-15T13:34:11.456Z,7.23
2023-02-15T13:37:20.007Z,7.20
2023-02-15T13:39:58.769Z,7.10
2023-02-15T13:42:47.380Z,6.50
2023-02-15T13:45:52.286Z,6.80
2023-02-15T13:48:50.795Z,7.37
2023-02-15T13:51:38.844Z,6.80
2023-02-15T13:54:44.621Z,7.47
2023-02-15T13:57:23.294Z,8.20
2023-02-15T14:00:02.340Z,7.40
2023-02-15T14:02:38.076Z,7.63
2023-02-15T14:05:26.178Z,7.23
2023-02-15T14:08:14.956Z,6.40
2023-02-15T14:11:04.763Z,7.20
2023-02-15T14:13:42.763Z,6.80
2023-02-15T14:16:34.789Z,7.67
2023-02-15T14:19:23.238Z,8.17
2023-02-15T14:22:25.092Z,7.03
2023-02-15T14:25:14.951Z,6.60
2023-02-15T14:28:17.514Z,6.53
2023-02-15T14:30:48.031Z,8.03
2023-02-15T14:33:15.173Z,7.90
2023-02-15T14:35:43.504Z,7.60
2023-02-15T14:38:29.253Z,10.33
2023-02-15T14:41:04.891Z,8.27
2023-02-15T14:43:50.018Z,7.50
2023-02-15T14:46:47.749Z,9.47
2023-02-15T14:49:25.373Z,8.63
2023-02-15T14:51:52.103Z,7.60
2023-02-15T14:54:18.827Z,6.07
2023-02-15T14:56:46.756Z,7.13
2023-02-15T14:59:22.183Z,7.30
2023-02-15T15:02:04.484Z,7.57
2023-02-15T15:04:35.285Z,6.70
2023-02-15T15:07:27.143Z,6.10
2023-02-15T15:10:17.114Z,6.30
2023-02-15T15:12:52.102Z,6.83
2023-02-15T15:15:22.226Z,6.63
2023-02-15T15:17:56.875Z,7.13
2023-02-15T15:20:26.771Z,6.70
2023-02-15T15:23:16.626Z,5.67
2023-02-15T15:25:47.826Z,6.77
2023-02-15T15:28:36.257Z,6.17
2023-02-15T15:31:31.906Z,7.70
2023-02-15T15:34:19.877Z,6.47
2023-02-15T15:37:19.727Z,6.13
2023-02-15T15:40:11.733Z,5.90
2023-02-15T15:42:55.483Z,6.00
2023-02-15T15:45:54.844Z,6.93
2023-02-15T15:48:39.725Z,6.87
2023-02-15T15:51:17.133Z,7.00
2023-02-15T15:53:49.976Z,7.10
2023-02-15T15:56:25.596Z,30.97
2023-02-15T15:59:07.584Z,40.90
2023-02-15T16:01:44.018Z,30.90
2023-02-15T16:04:23.528Z,16.20
2023-02-15T16:06:50.585Z,17.50
2023-02-15T16:09:24.488Z,17.80
2023-02-15T16:12:02.588Z,15.37
2023-02-15T16:14:36.606Z,14.23
2023-02-15T16:17:07.144Z,11.07
2023-02-15T16:19:36.854Z,11.23
2023-02-15T16:22:04.670Z,11.10
2023-02-15T16:24:43.447Z,12.17
2023-02-15T16:27:33.436Z,29.50
2023-02-15T16:30:17.569Z,28.07
2023-02-15T16:32:44.592Z,32.03
2023-02-15T16:35:17.322Z,27.93
2023-02-15T16:37:45.108Z,23.37
2023-02-15T16:40:37.904Z,15.47
2023-02-15T16:43:08.590Z,13.03
2023-02-15T16:45:38.151Z,9.77
2023-02-15T16:48:11.662Z,10.60
2023-02-15T16:50:39.716Z,10.57
2023-02-15T16:53:15.106Z,10.37
2023-02-15T16:55:43.450Z,9.60
2023-02-15T16:58:16.838Z,8.87
2023-02-15T17:00:47.023Z,9.17
2023-02-15T17:03:16.397Z,8.93
2023-02-15T17:05:47.423Z,9.27
2023-02-15T17:08:20.793Z,10.97
2023-02-15T17:11:05.812Z,13.47
2023-02-15T17:13:32.905Z,14.53
2023-02-15T17:16:00.629Z,14.23
2023-02-15T17:18:33.758Z,15.90
2023-02-15T17:21:09.843Z,16.83
2023-02-15T17:23:43.173Z,14.20
2023-02-15T17:26:21.215Z,16.13
2023-02-15T17:28:53.884Z,16.23
2023-02-15T17:31:22.423Z,12.63
2023-02-15T17:33:54.861Z,13.27
2023-02-15T17:36:23.653Z,14.80
2023-02-15T17:39:21.259Z,15.30
2023-02-15T17:41:48.525Z,15.80
2023-02-15T17:44:16.745Z,15.27
2023-02-15T17:46:44.796Z,15.97
2023-02-15T17:49:25.214Z,14.80
2023-02-15T17:51:51.931Z,14.13
2023-02-15T17:54:37.236Z,11.93
2023-02-15T17:57:06.856Z,11.27
2023-02-15T17:59:33.591Z,10.43
2023-02-15T18:02:19.169Z,11.67
2023-02-15T18:05:04.584Z,11.00
2023-02-15T18:07:50.340Z,10.60
2023-02-15T18:10:37.848Z,10.27
2023-02-15T18:13:05.021Z,12.37
2023-02-15T18:15:32.029Z,10.63
2023-02-15T18:17:59.250Z,10.17
2023-02-15T18:20:32.726Z,10.80
2023-02-15T18:22:59.552Z,9.97
2023-02-15T18:25:26.414Z,12.57
2023-02-15T18:27:55.227Z,11.73
2023-02-15T18:30:24.122Z,11.97
2023-02-15T18:32:52.569Z,11.97
2023-02-15T18:35:21.978Z,10.97
2023-02-15T18:37:50.460Z,11.43
2023-02-15T18:40:22.082Z,11.73
2023-02-15T18:42:49.491Z,11.87
2023-02-15T18:45:32.392Z,12.83
2023-02-15T18:47:59.227Z,15.03
2023-02-15T18:50:29.198Z,15.00
2023-02-15T18:52:55.955Z,15.80
2023-02-15T18:55:25.563Z,15.97
2023-02-15T18:57:54.412Z,16.77
2023-02-15T19:00:30.076Z,14.90
2023-02-15T19:02:57.254Z,15.60
2023-02-15T19:05:27.509Z,17.53
2023-02-15T19:07:55.276Z,16.03
2023-02-15T19:10:24.960Z,15.57
2023-02-15T19:12:53.028Z,19.67
2023-02-15T19:15:25.418Z,18.23
2023-02-15T19:17:53.505Z,15.77
2023-02-15T19:20:22.362Z,15.67
2023-02-15T19:22:51.314Z,16.87
2023-02-15T19:25:27.037Z,14.23
2023-02-15T19:27:55.430Z,14.23
2023-02-15T19:30:24.235Z,14.13
2023-02-15T19:32:51.061Z,14.67
2023-02-15T19:35:22.487Z,14.20
2023-02-15T19:37:55.632Z,15.63
2023-02-15T19:40:28.651Z,16.67
2023-02-15T19:42:56.019Z,16.37
2023-02-15T19:45:25.661Z,22.50
2023-02-15T19:47:54.208Z,20.60
2023-02-15T19:50:24.126Z,18.80
2023-02-15T19:52:51.201Z,16.63
2023-02-15T19:55:27.921Z,15.90
2023-02-15T19:57:57.151Z,18.00
2023-02-15T20:00:26.530Z,18.90
2023-02-15T20:02:54.359Z,17.80
2023-02-15T20:05:21.823Z,17.33
2023-02-15T20:07:52.305Z,13.97
2023-02-15T20:10:32.738Z,13.47
2023-02-15T20:13:00.412Z,12.67
2023-02-15T20:15:35.472Z,13.17
2023-02-15T20:18:04.210Z,14.57
2023-02-15T20:20:39.971Z,16.27
2023-02-15T20:23:07.232Z,16.30
2023-02-15T20:25:34.299Z,15.63
2023-02-15T20:28:01.793Z,16.30
2023-02-15T20:30:31.591Z,15.20
2023-02-15T20:32:58.904Z,13.30
2023-02-15T20:35:31.464Z,12.93
2023-02-15T20:38:00.521Z,15.53
2023-02-15T20:40:37.287Z,13.70
2023-02-15T20:43:04.085Z,16.07
2023-02-15T20:45:32.899Z,17.10
2023-02-15T20:48:01.870Z,14.03
2023-02-15T20:50:31.845Z,15.77
2023-02-15T20:53:00.804Z,15.30
2023-02-15T20:55:30.501Z,15.33
2023-02-15T20:57:58.162Z,15.60
2023-02-15T21:00:28.367Z,14.67
2023-02-15T21:03:01.040Z,14.50
2023-02-15T21:05:30.795Z,14.37
2023-02-15T21:07:58.009Z,14.43
2023-02-15T21:10:29.415Z,15.57
2023-02-15T21:12:59.165Z,16.53
2023-02-15T21:15:39.811Z,16.67
2023-02-15T21:18:12.560Z,18.33
2023-02-15T21:20:45.379Z,17.10
2023-02-15T21:23:14.908Z,17.23
2023-02-15T21:25:44.472Z,16.50
2023-02-15T21:28:20.265Z,16.63
2023-02-15T21:30:48.868Z,17.40
2023-02-15T21:33:16.351Z,16.40
2023-02-15T21:35:46.624Z,16.53
2023-02-15T21:38:20.816Z,17.97
2023-02-15T21:40:48.667Z,16.70
2023-02-15T21:43:41.906Z,16.57
2023-02-15T21:46:33.214Z,16.77
2023-02-15T21:49:01.784Z,15.37
2023-02-15T21:51:49.132Z,15.47
2023-02-15T21:54:18.848Z,15.23
2023-02-15T21:56:47.849Z,15.93
2023-02-15T21:59:16.533Z,14.53
2023-02-15T22:01:48.387Z,14.13
2023-02-15T22:04:23.708Z,14.77
2023-02-15T22:06:50.583Z,14.60
2023-02-15T22:09:23.045Z,14.33
2023-02-15T22:11:51.198Z,14.43
2023-02-15T22:14:37.218Z,13.33
2023-02-15T22:17:17.559Z,13.60
2023-02-15T22:19:46.344Z,13.17
2023-02-15T22:22:13.580Z,14.17
2023-02-15T22:24:40.870Z,14.93
2023-02-15T22:27:14.140Z,15.20
2023-02-15T22:29:41.058Z,13.93
2023-02-15T22:32:17.184Z,14.57
2023-02-15T22:34:44.077Z,14.80
2023-02-15T22:37:10.867Z,17.20
2023-02-15T22:39:37.836Z,16.93
2023-02-15T22:42:05.206Z,19.90
2023-02-15T22:44:35.240Z,20.07
2023-02-15T22:47:02.007Z,16.53
2023-02-15T22:49:28.980Z,15.73
2023-02-15T22:51:55.749Z,14.80
2023-02-15T22:54:22.532Z,15.20
2023-02-15T22:56:52.156Z,16.60
2023-02-15T22:59:28.804Z,15.47
2023-02-15T23:01:57.183Z,16.37
2023-02-15T23:04:29.327Z,15.93
2023-02-15T23:06:59.370Z,15.97
2023-02-15T23:09:27.275Z,14.00
2023-02-15T23:11:54.404Z,14.40
2023-02-15T23:14:33.910Z,14.37
2023-02-15T23:17:01.138Z,13.90
2023-02-15T23:19:28.301Z,13.30
2023-02-15T23:21:55.098Z,13.77
2023-02-15T23:24:28.562Z,15.10
2023-02-15T23:27:15.538Z,13.30
2023-02-15T23:29:42.311Z,13.97
2023-02-15T23:32:13.026Z,14.70
2023-02-15T23:34:40.621Z,14.30
2023-02-15T23:37:11.310Z,14.10
2023-02-15T23:39:56.776Z,15.20
2023-02-15T23:42:30.553Z,13.47
2023-02-15T23:44:57.661Z,13.73
2023-02-15T23:47:47.577Z,13.90
2023-02-15T23:50:26.019Z,12.80
2023-02-15T23:52:54.104Z,12.60
2023-02-15T23:55:22.774Z,13.80
2023-02-15T23:57:50.206Z,14.03
